aviador You're here:

KDTS Decoded Metar

DESTIN in FL, USA
Report Time2017-10-21 14:53:00
UTC Time2017-10-21 15:44:35
Flight Rules vfr VFR
Wind080° at 08 kt
W.Decomp.*RWY 14: 4.1 kt HW 6.9 kt LCW
W.Rank080° ranks 8
Current wind is above 080° avg. (6.1)
Visibility9999 m
Phenomena:N/A
Clouds:N/A
Expected CloudBase > 2,800 ft AGL from Temp-Dew spread
CeilingNone
Temp26°C (ISA +11)
Dew Point19°C (65% RH)
QNH1021 hPa
Density Alt1,312 ft
Elevation16 ft
Report Wrong Elevation
Raw Report
KDTS 211453Z AUTO 08008KT 10SM CLR 26/19 A3016 RMK AO2 SLP212
T02560194 51013=

Extra information for KDTS:More info

Metar Taf Metar & Taf Last 4 Metars F.Rules Stats Wind Profile Meteogram Temp Stats Airport Information Weather charts Add Link Nearby VenuesMetar ALERT Operation Metar Decoded Social comments

AIRNAV info for KDTS